N312CL KMKC-KAXX
Flight info
| Callsign | N312CL |
|---|---|
| Flight time | N/A |
| Altitude | 11500 |
| Route | WLDCT6 SLN/N0189F120 GCK J96 CIM |
| Aircraft | S22T/L-SDGRY/S |
Departure
| Time | 2026-04-25 22:33 |
|---|---|
| Airport | Charles B. Wheeler Downtown Airport (KMKC) |
Arrival
| Time | N/A |
|---|---|
| Airport | Angel Fire Airport (KAXX) |
| Time | Latitude | Longitude | Altitude | Speed | Heading |
|---|---|---|---|---|---|
| 2026-04-25 22:21 | 39.12727 | -94.59416 | 751 ft | 0 kts | 282° |
| 2026-04-25 22:25 | 39.12729 | -94.59422 | 751 ft | 4 kts | 313° |
| 2026-04-25 22:26 | 39.12778 | -94.59394 | 749 ft | 12 kts | 33° |
| 2026-04-25 22:26 | 39.12845 | -94.59329 | 750 ft | 11 kts | 25° |
| 2026-04-25 22:26 | 39.12888 | -94.59270 | 750 ft | 8 kts | 33° |
| 2026-04-25 22:26 | 39.12910 | -94.59222 | 751 ft | 0 kts | 106° |
| 2026-04-25 22:31 | 39.12902 | -94.59181 | 751 ft | 9 kts | 99° |
| 2026-04-25 22:32 | 39.12832 | -94.59143 | 752 ft | 20 kts | 190° |
| 2026-04-25 22:32 | 39.12499 | -94.59237 | 755 ft | 78 kts | 189° |
| 2026-04-25 22:32 | 39.11893 | -94.59429 | 924 ft | 93 kts | 197° |
| 2026-04-25 22:32 | 39.11273 | -94.59642 | 1266 ft | 96 kts | 193° |
| 2026-04-25 22:33 | 39.10628 | -94.59904 | 1611 ft | 98 kts | 197° |
| 2026-04-25 22:33 | 39.10032 | -94.60291 | 1992 ft | 105 kts | 209° |
| 2026-04-25 22:33 | 39.09657 | -94.61145 | 2310 ft | 124 kts | 266° |
| 2026-04-25 22:33 | 39.10009 | -94.62180 | 2701 ft | 123 kts | 304° |
| 2026-04-25 22:34 | 39.10467 | -94.63151 | 2993 ft | 133 kts | 299° |
| 2026-04-25 22:34 | 39.10784 | -94.64225 | 3438 ft | 123 kts | 282° |
| 2026-04-25 22:34 | 39.10973 | -94.65348 | 3709 ft | 132 kts | 280° |
| 2026-04-25 22:34 | 39.11150 | -94.66458 | 4141 ft | 122 kts | 265° |
| 2026-04-25 22:35 | 39.11214 | -94.67559 | 4499 ft | 125 kts | 271° |
| 2026-04-25 22:35 | 39.11355 | -94.68657 | 4889 ft | 125 kts | 274° |
| 2026-04-25 22:35 | 39.11520 | -94.69842 | 5079 ft | 140 kts | 276° |
| 2026-04-25 22:35 | 39.11707 | -94.71070 | 5422 ft | 139 kts | 275° |
| 2026-04-25 22:36 | 39.11893 | -94.72298 | 5746 ft | 139 kts | 275° |
| 2026-04-25 22:36 | 39.12077 | -94.73520 | 6091 ft | 138 kts | 275° |
| 2026-04-25 22:36 | 39.12256 | -94.74732 | 6434 ft | 138 kts | 274° |
| 2026-04-25 22:36 | 39.12438 | -94.75948 | 6747 ft | 138 kts | 274° |
| 2026-04-25 22:37 | 39.12617 | -94.77142 | 7079 ft | 137 kts | 273° |
| 2026-04-25 22:37 | 39.12790 | -94.78332 | 7427 ft | 134 kts | 272° |
| 2026-04-25 22:37 | 39.12971 | -94.79509 | 7769 ft | 134 kts | 276° |
| 2026-04-25 22:37 | 39.13148 | -94.80687 | 8132 ft | 134 kts | 273° |
| 2026-04-25 22:38 | 39.13317 | -94.81855 | 8516 ft | 132 kts | 276° |
| 2026-04-25 22:38 | 39.13485 | -94.83016 | 8878 ft | 132 kts | 275° |
| 2026-04-25 22:38 | 39.13654 | -94.84166 | 9248 ft | 129 kts | 275° |
| 2026-04-25 22:38 | 39.13822 | -94.85306 | 9576 ft | 130 kts | 276° |
| 2026-04-25 22:39 | 39.13986 | -94.86450 | 9908 ft | 129 kts | 275° |
| 2026-04-25 22:39 | 39.14155 | -94.87578 | 10216 ft | 129 kts | 275° |
| 2026-04-25 22:39 | 39.14323 | -94.88719 | 10518 ft | 130 kts | 275° |
| 2026-04-25 22:39 | 39.14493 | -94.89867 | 10819 ft | 131 kts | 274° |
| 2026-04-25 22:40 | 39.14663 | -94.91023 | 11137 ft | 131 kts | 274° |
| 2026-04-25 22:40 | 39.14831 | -94.92169 | 11444 ft | 132 kts | 275° |
| 2026-04-25 22:40 | 39.15002 | -94.93345 | 11755 ft | 134 kts | 275° |
| 2026-04-25 22:40 | 39.15182 | -94.94577 | 11882 ft | 149 kts | 276° |
| 2026-04-25 22:41 | 39.15391 | -94.95963 | 11886 ft | 166 kts | 275° |
| 2026-04-25 22:41 | 39.15610 | -94.97478 | 11884 ft | 177 kts | 275° |
| 2026-04-25 22:41 | 39.15842 | -94.99063 | 11883 ft | 183 kts | 275° |
| 2026-04-25 22:41 | 39.16082 | -95.00697 | 11876 ft | 187 kts | 276° |
| 2026-04-25 22:42 | 39.16325 | -95.02359 | 11876 ft | 190 kts | 276° |
| 2026-04-25 22:42 | 39.16571 | -95.04040 | 11873 ft | 192 kts | 276° |
| 2026-04-25 22:42 | 39.16818 | -95.05734 | 11874 ft | 193 kts | 276° |
| 2026-04-25 22:42 | 39.17066 | -95.07440 | 11878 ft | 194 kts | 276° |
| 2026-04-25 22:43 | 39.17314 | -95.09150 | 11879 ft | 194 kts | 276° |
| 2026-04-25 22:43 | 39.17563 | -95.10863 | 11876 ft | 194 kts | 276° |
| 2026-04-25 22:43 | 39.17810 | -95.12576 | 11872 ft | 195 kts | 276° |
| 2026-04-25 22:43 | 39.18055 | -95.14268 | 11872 ft | 195 kts | 276° |
| 2026-04-25 22:44 | 39.18307 | -95.16007 | 11876 ft | 195 kts | 276° |
| 2026-04-25 22:44 | 39.18553 | -95.17710 | 11877 ft | 196 kts | 276° |
| 2026-04-25 22:44 | 39.18801 | -95.19434 | 11873 ft | 195 kts | 276° |
| 2026-04-25 22:44 | 39.19050 | -95.21157 | 11876 ft | 195 kts | 276° |
| 2026-04-25 22:45 | 39.19298 | -95.22874 | 11877 ft | 195 kts | 276° |
| 2026-04-25 22:45 | 39.19544 | -95.24590 | 11876 ft | 194 kts | 276° |
| 2026-04-25 22:45 | 39.19789 | -95.26301 | 11874 ft | 194 kts | 276° |
| 2026-04-25 22:45 | 39.20035 | -95.28013 | 11871 ft | 194 kts | 276° |
| 2026-04-25 22:46 | 39.20281 | -95.29717 | 11871 ft | 193 kts | 276° |
| 2026-04-25 22:46 | 39.20522 | -95.31419 | 11870 ft | 193 kts | 276° |
| 2026-04-25 22:46 | 39.20766 | -95.33122 | 11869 ft | 193 kts | 275° |
| 2026-04-25 22:46 | 39.21011 | -95.34827 | 11875 ft | 193 kts | 274° |
| 2026-04-25 22:47 | 39.21253 | -95.36531 | 11876 ft | 193 kts | 274° |
| 2026-04-25 22:47 | 39.21295 | -95.38214 | 11871 ft | 184 kts | 256° |
| 2026-04-25 22:47 | 39.21088 | -95.39840 | 11864 ft | 183 kts | 256° |
| 2026-04-25 22:47 | 39.20911 | -95.41463 | 11866 ft | 182 kts | 256° |
| 2026-04-25 22:48 | 39.20727 | -95.43081 | 11863 ft | 182 kts | 256° |
| 2026-04-25 22:48 | 39.20540 | -95.44697 | 11863 ft | 182 kts | 256° |
| 2026-04-25 22:48 | 39.20353 | -95.46315 | 11863 ft | 182 kts | 256° |
| 2026-04-25 22:48 | 39.20165 | -95.47931 | 11860 ft | 182 kts | 256° |
| 2026-04-25 22:49 | 39.19978 | -95.49547 | 11860 ft | 182 kts | 256° |
| 2026-04-25 22:49 | 39.19793 | -95.51142 | 11861 ft | 182 kts | 256° |
| 2026-04-25 22:49 | 39.19605 | -95.52760 | 11860 ft | 182 kts | 256° |
| 2026-04-25 22:49 | 39.19417 | -95.54377 | 11860 ft | 182 kts | 256° |
| 2026-04-25 22:50 | 39.19229 | -95.55997 | 11859 ft | 183 kts | 256° |
| 2026-04-25 22:50 | 39.19040 | -95.57617 | 11859 ft | 183 kts | 256° |
| 2026-04-25 22:50 | 39.18850 | -95.59241 | 11858 ft | 183 kts | 256° |
| 2026-04-25 22:50 | 39.18660 | -95.60862 | 11859 ft | 183 kts | 256° |
| 2026-04-25 22:51 | 39.18470 | -95.62487 | 11858 ft | 184 kts | 256° |
| 2026-04-25 22:51 | 39.18277 | -95.64122 | 11856 ft | 185 kts | 256° |
| 2026-04-25 22:51 | 39.18089 | -95.65760 | 11855 ft | 185 kts | 256° |
| 2026-04-25 22:51 | 39.17894 | -95.67398 | 11848 ft | 184 kts | 256° |
| 2026-04-25 22:52 | 39.17704 | -95.69016 | 11846 ft | 182 kts | 256° |
| 2026-04-25 22:52 | 39.17514 | -95.70620 | 11845 ft | 180 kts | 255° |
| 2026-04-25 22:52 | 39.17327 | -95.72208 | 11854 ft | 178 kts | 255° |
| 2026-04-25 22:52 | 39.17205 | -95.73250 | 11853 ft | 177 kts | 255° |
| 2026-04-25 22:53 | 39.16958 | -95.75339 | 11848 ft | 176 kts | 255° |
| 2026-04-25 22:53 | 39.16773 | -95.76888 | 11846 ft | 175 kts | 255° |
| 2026-04-25 22:53 | 39.16591 | -95.78435 | 11847 ft | 173 kts | 255° |
| 2026-04-25 22:53 | 39.16409 | -95.79967 | 11846 ft | 173 kts | 255° |
| 2026-04-25 22:54 | 39.16227 | -95.81495 | 11844 ft | 172 kts | 255° |
| 2026-04-25 22:54 | 39.16046 | -95.83019 | 11845 ft | 172 kts | 255° |
| 2026-04-25 22:54 | 39.15867 | -95.84520 | 11846 ft | 172 kts | 255° |
| 2026-04-25 22:54 | 39.15686 | -95.86040 | 11844 ft | 171 kts | 255° |
| 2026-04-25 22:55 | 39.15505 | -95.87557 | 11844 ft | 171 kts | 255° |
| 2026-04-25 22:55 | 39.15325 | -95.89067 | 11846 ft | 171 kts | 255° |
| 2026-04-25 22:55 | 39.15143 | -95.90583 | 11847 ft | 171 kts | 255° |
| 2026-04-25 22:55 | 39.14962 | -95.92099 | 11847 ft | 171 kts | 255° |
| 2026-04-25 22:56 | 39.14780 | -95.93617 | 11846 ft | 171 kts | 255° |
| 2026-04-25 22:56 | 39.14597 | -95.95136 | 11845 ft | 172 kts | 255° |
| 2026-04-25 22:56 | 39.14407 | -95.96652 | 11845 ft | 171 kts | 255° |
| 2026-04-25 22:56 | 39.14216 | -95.98170 | 11846 ft | 172 kts | 255° |
| 2026-04-25 22:57 | 39.14026 | -95.99692 | 11847 ft | 173 kts | 255° |
| 2026-04-25 22:57 | 39.13834 | -96.01221 | 11848 ft | 173 kts | 255° |
| 2026-04-25 22:57 | 39.13641 | -96.02753 | 11849 ft | 173 kts | 255° |
| 2026-04-25 22:57 | 39.13449 | -96.04289 | 11850 ft | 174 kts | 255° |
| 2026-04-25 22:58 | 39.13256 | -96.05825 | 11852 ft | 174 kts | 255° |
| 2026-04-25 22:58 | 39.13063 | -96.07365 | 11852 ft | 174 kts | 255° |
| 2026-04-25 22:58 | 39.12868 | -96.08904 | 11859 ft | 175 kts | 253° |
| 2026-04-25 22:58 | 39.12673 | -96.10454 | 11856 ft | 176 kts | 253° |
| 2026-04-25 22:59 | 39.12543 | -96.11492 | 11855 ft | 177 kts | 253° |
| 2026-04-25 22:59 | 39.12280 | -96.13571 | 11854 ft | 178 kts | 253° |
| 2026-04-25 22:59 | 39.12081 | -96.15139 | 11854 ft | 177 kts | 253° |
| 2026-04-25 22:59 | 39.11882 | -96.16705 | 11855 ft | 177 kts | 253° |
| 2026-04-25 23:00 | 39.11686 | -96.18276 | 11858 ft | 179 kts | 253° |
| 2026-04-25 23:00 | 39.11551 | -96.19354 | 11858 ft | 181 kts | 253° |
| 2026-04-25 23:00 | 39.11343 | -96.20958 | 11857 ft | 183 kts | 253° |
| 2026-04-25 23:00 | 39.11136 | -96.22584 | 11857 ft | 185 kts | 253° |
| 2026-04-25 23:01 | 39.10941 | -96.24230 | 11852 ft | 187 kts | 255° |
| 2026-04-25 23:01 | 39.10742 | -96.25886 | 11853 ft | 187 kts | 253° |
| 2026-04-25 23:01 | 39.10507 | -96.27521 | 11848 ft | 188 kts | 253° |
| 2026-04-25 23:01 | 39.10285 | -96.29197 | 11848 ft | 187 kts | 253° |
| 2026-04-25 23:02 | 39.10074 | -96.30849 | 11848 ft | 187 kts | 254° |
| 2026-04-25 23:02 | 39.09869 | -96.32493 | 11842 ft | 185 kts | 254° |
| 2026-04-25 23:02 | 39.09664 | -96.34099 | 11839 ft | 183 kts | 253° |
| 2026-04-25 23:02 | 39.09457 | -96.35714 | 11839 ft | 182 kts | 253° |
| 2026-04-25 23:03 | 39.09250 | -96.37323 | 11836 ft | 182 kts | 253° |
| 2026-04-25 23:03 | 39.09045 | -96.38929 | 11836 ft | 182 kts | 253° |
| 2026-04-25 23:03 | 39.08836 | -96.40544 | 11828 ft | 183 kts | 253° |
| 2026-04-25 23:03 | 39.08629 | -96.42163 | 11829 ft | 184 kts | 253° |
| 2026-04-25 23:04 | 39.08421 | -96.43783 | 11831 ft | 183 kts | 253° |
| 2026-04-25 23:04 | 39.08212 | -96.45396 | 11829 ft | 182 kts | 253° |
| 2026-04-25 23:04 | 39.08004 | -96.47003 | 11835 ft | 182 kts | 253° |
| 2026-04-25 23:04 | 39.07795 | -96.48615 | 11832 ft | 182 kts | 253° |
| 2026-04-25 23:05 | 39.07587 | -96.50223 | 11832 ft | 182 kts | 254° |
| 2026-04-25 23:05 | 39.07379 | -96.51828 | 11831 ft | 182 kts | 253° |
| 2026-04-25 23:05 | 39.07170 | -96.53431 | 11831 ft | 182 kts | 253° |
| 2026-04-25 23:05 | 39.06961 | -96.55032 | 11823 ft | 182 kts | 254° |
| 2026-04-25 23:06 | 39.06753 | -96.56637 | 11798 ft | 182 kts | 253° |
| 2026-04-25 23:06 | 39.06547 | -96.58223 | 11797 ft | 182 kts | 253° |
| 2026-04-25 23:06 | 39.06337 | -96.59826 | 11795 ft | 182 kts | 253° |
| 2026-04-25 23:06 | 39.06127 | -96.61426 | 11795 ft | 181 kts | 254° |
| 2026-04-25 23:07 | 39.05919 | -96.63025 | 11796 ft | 182 kts | 254° |
| 2026-04-25 23:07 | 39.05709 | -96.64631 | 11794 ft | 182 kts | 253° |
| 2026-04-25 23:07 | 39.05500 | -96.66232 | 11775 ft | 181 kts | 253° |
| 2026-04-25 23:07 | 39.05289 | -96.67832 | 11776 ft | 181 kts | 253° |
| 2026-04-25 23:08 | 39.05077 | -96.69438 | 11779 ft | 183 kts | 254° |
| 2026-04-25 23:08 | 39.04866 | -96.71058 | 11780 ft | 184 kts | 254° |
| 2026-04-25 23:08 | 39.04651 | -96.72688 | 11781 ft | 185 kts | 254° |
| 2026-04-25 23:08 | 39.04437 | -96.74317 | 11782 ft | 184 kts | 253° |
| 2026-04-25 23:09 | 39.04222 | -96.75942 | 11784 ft | 184 kts | 253° |
| 2026-04-25 23:09 | 39.04009 | -96.77565 | 11783 ft | 184 kts | 253° |
| 2026-04-25 23:09 | 39.03795 | -96.79182 | 11781 ft | 183 kts | 253° |
| 2026-04-25 23:09 | 39.03581 | -96.80793 | 11780 ft | 182 kts | 253° |
| 2026-04-25 23:10 | 39.03367 | -96.82398 | 11777 ft | 182 kts | 253° |
| 2026-04-25 23:10 | 39.03155 | -96.84003 | 11775 ft | 182 kts | 253° |
| 2026-04-25 23:10 | 39.02944 | -96.85597 | 11784 ft | 180 kts | 254° |
| 2026-04-25 23:10 | 39.02733 | -96.87183 | 11784 ft | 179 kts | 254° |
| 2026-04-25 23:11 | 39.02523 | -96.88755 | 11785 ft | 178 kts | 254° |
| 2026-04-25 23:11 | 39.02317 | -96.90305 | 11786 ft | 178 kts | 254° |
| 2026-04-25 23:11 | 39.02107 | -96.91870 | 11787 ft | 178 kts | 254° |
| 2026-04-25 23:11 | 39.01896 | -96.93456 | 11788 ft | 178 kts | 254° |
| 2026-04-25 23:12 | 39.01689 | -96.95001 | 11787 ft | 178 kts | 254° |
| 2026-04-25 23:12 | 39.01480 | -96.96564 | 11789 ft | 177 kts | 254° |
| 2026-04-25 23:12 | 39.01271 | -96.98126 | 11791 ft | 177 kts | 254° |
| 2026-04-25 23:12 | 39.01061 | -96.99692 | 11789 ft | 178 kts | 254° |
| 2026-04-25 23:13 | 39.00850 | -97.01260 | 11789 ft | 178 kts | 254° |
| 2026-04-25 23:13 | 39.00641 | -97.02826 | 11790 ft | 178 kts | 254° |
| 2026-04-25 23:13 | 39.00429 | -97.04395 | 11792 ft | 178 kts | 254° |
| 2026-04-25 23:13 | 39.00218 | -97.05963 | 11792 ft | 178 kts | 254° |
| 2026-04-25 23:14 | 39.00008 | -97.07524 | 11793 ft | 177 kts | 254° |
| 2026-04-25 23:14 | 38.99796 | -97.09086 | 11792 ft | 177 kts | 254° |
| 2026-04-25 23:14 | 38.99586 | -97.10647 | 11794 ft | 177 kts | 254° |
| 2026-04-25 23:14 | 38.99375 | -97.12212 | 11794 ft | 178 kts | 254° |
| 2026-04-25 23:15 | 38.99166 | -97.13758 | 11796 ft | 178 kts | 254° |
| 2026-04-25 23:15 | 38.98953 | -97.15322 | 11793 ft | 178 kts | 254° |
| 2026-04-25 23:15 | 38.98742 | -97.16885 | 11794 ft | 178 kts | 254° |
| 2026-04-25 23:15 | 38.98529 | -97.18453 | 11795 ft | 178 kts | 254° |
| 2026-04-25 23:16 | 38.98315 | -97.20019 | 11793 ft | 178 kts | 254° |
| 2026-04-25 23:16 | 38.98103 | -97.21583 | 11794 ft | 178 kts | 254° |
| 2026-04-25 23:16 | 38.97890 | -97.23148 | 11793 ft | 178 kts | 254° |
| 2026-04-25 23:16 | 38.97676 | -97.24716 | 11795 ft | 178 kts | 254° |
| 2026-04-25 23:17 | 38.97462 | -97.26287 | 11798 ft | 178 kts | 254° |
| 2026-04-25 23:17 | 38.97247 | -97.27856 | 11798 ft | 178 kts | 254° |
| 2026-04-25 23:17 | 38.97033 | -97.29424 | 11797 ft | 178 kts | 254° |
| 2026-04-25 23:17 | 38.96819 | -97.30986 | 11786 ft | 178 kts | 254° |
| 2026-04-25 23:18 | 38.96604 | -97.32550 | 11787 ft | 178 kts | 254° |
| 2026-04-25 23:18 | 38.96390 | -97.34113 | 11787 ft | 178 kts | 254° |
| 2026-04-25 23:18 | 38.96177 | -97.35658 | 11788 ft | 178 kts | 254° |
| 2026-04-25 23:18 | 38.95963 | -97.37222 | 11788 ft | 178 kts | 254° |
| 2026-04-25 23:19 | 38.95748 | -97.38787 | 11786 ft | 178 kts | 254° |
| 2026-04-25 23:19 | 38.95531 | -97.40349 | 11786 ft | 178 kts | 254° |
| 2026-04-25 23:19 | 38.95316 | -97.41918 | 11785 ft | 178 kts | 254° |
| 2026-04-25 23:19 | 38.95100 | -97.43484 | 11786 ft | 178 kts | 254° |
| 2026-04-25 23:20 | 38.94883 | -97.45049 | 11783 ft | 178 kts | 254° |
| 2026-04-25 23:20 | 38.94667 | -97.46614 | 11783 ft | 178 kts | 254° |
| 2026-04-25 23:20 | 38.94450 | -97.48179 | 11783 ft | 178 kts | 254° |
| 2026-04-25 23:20 | 38.94234 | -97.49742 | 11782 ft | 178 kts | 254° |
| 2026-04-25 23:21 | 38.94016 | -97.51304 | 11811 ft | 178 kts | 254° |
| 2026-04-25 23:21 | 38.93799 | -97.52868 | 11812 ft | 178 kts | 254° |
| 2026-04-25 23:21 | 38.93581 | -97.54431 | 11814 ft | 178 kts | 254° |
| 2026-04-25 23:21 | 38.93365 | -97.55995 | 11815 ft | 177 kts | 254° |
| 2026-04-25 23:22 | 38.93147 | -97.57554 | 11813 ft | 178 kts | 254° |
| 2026-04-25 23:22 | 38.92929 | -97.59115 | 11824 ft | 178 kts | 256° |
| 2026-04-25 23:22 | 38.92711 | -97.60679 | 11809 ft | 178 kts | 257° |
| 2026-04-25 23:23 | 38.92017 | -97.63703 | 11811 ft | 177 kts | 245° |
| 2026-04-25 23:23 | 38.91569 | -97.65175 | 11812 ft | 177 kts | 246° |
| 2026-04-25 23:23 | 38.91121 | -97.66647 | 11813 ft | 177 kts | 246° |
| 2026-04-25 23:23 | 38.90670 | -97.68119 | 11813 ft | 177 kts | 246° |
| 2026-04-25 23:24 | 38.90224 | -97.69570 | 11817 ft | 177 kts | 246° |
| 2026-04-25 23:24 | 38.89770 | -97.71045 | 11822 ft | 179 kts | 246° |
| 2026-04-25 23:24 | 38.89306 | -97.72537 | 11821 ft | 180 kts | 246° |
| 2026-04-25 23:24 | 38.88849 | -97.74038 | 11823 ft | 181 kts | 246° |
| 2026-04-25 23:25 | 38.88387 | -97.75547 | 11821 ft | 181 kts | 246° |
| 2026-04-25 23:25 | 38.87923 | -97.77047 | 11819 ft | 180 kts | 246° |
| 2026-04-25 23:25 | 38.87461 | -97.78546 | 11820 ft | 181 kts | 246° |
| 2026-04-25 23:25 | 38.86998 | -97.80045 | 11818 ft | 181 kts | 246° |
| 2026-04-25 23:26 | 38.86535 | -97.81544 | 11815 ft | 180 kts | 246° |
| 2026-04-25 23:26 | 38.86074 | -97.83036 | 11812 ft | 180 kts | 246° |
| 2026-04-25 23:26 | 38.85612 | -97.84531 | 11808 ft | 180 kts | 246° |
| 2026-04-25 23:26 | 38.85153 | -97.86019 | 11803 ft | 179 kts | 246° |
| 2026-04-25 23:27 | 38.84694 | -97.87501 | 11799 ft | 178 kts | 246° |
| 2026-04-25 23:27 | 38.84237 | -97.88976 | 11796 ft | 178 kts | 246° |
| 2026-04-25 23:27 | 38.83780 | -97.90454 | 11794 ft | 178 kts | 246° |
| 2026-04-25 23:27 | 38.83324 | -97.91927 | 11790 ft | 178 kts | 246° |
| 2026-04-25 23:28 | 38.82872 | -97.93383 | 11789 ft | 178 kts | 246° |
| 2026-04-25 23:28 | 38.82410 | -97.94874 | 11789 ft | 178 kts | 247° |
| 2026-04-25 23:28 | 38.81959 | -97.96328 | 11786 ft | 178 kts | 246° |
| 2026-04-25 23:28 | 38.81507 | -97.97801 | 11791 ft | 178 kts | 249° |
| 2026-04-25 23:29 | 38.81046 | -97.99275 | 11785 ft | 178 kts | 249° |
| 2026-04-25 23:29 | 38.80585 | -98.00749 | 11782 ft | 178 kts | 249° |
| 2026-04-25 23:29 | 38.80125 | -98.02224 | 11779 ft | 178 kts | 249° |
| 2026-04-25 23:29 | 38.79667 | -98.03699 | 11778 ft | 178 kts | 249° |
| 2026-04-25 23:30 | 38.79208 | -98.05173 | 11776 ft | 178 kts | 249° |
| 2026-04-25 23:30 | 38.78749 | -98.06648 | 11775 ft | 178 kts | 249° |
| 2026-04-25 23:30 | 38.78289 | -98.08125 | 11773 ft | 178 kts | 249° |
| 2026-04-25 23:30 | 38.77829 | -98.09599 | 11770 ft | 178 kts | 249° |
| 2026-04-25 23:31 | 38.77368 | -98.11077 | 11768 ft | 178 kts | 249° |
| 2026-04-25 23:31 | 38.76908 | -98.12550 | 11767 ft | 178 kts | 249° |
| 2026-04-25 23:31 | 38.76448 | -98.14022 | 11766 ft | 178 kts | 249° |
| 2026-04-25 23:31 | 38.75988 | -98.15496 | 11767 ft | 178 kts | 249° |
| 2026-04-25 23:32 | 38.75527 | -98.16968 | 11764 ft | 178 kts | 249° |
| 2026-04-25 23:32 | 38.75066 | -98.18443 | 11764 ft | 178 kts | 249° |
| 2026-04-25 23:32 | 38.74605 | -98.19914 | 11763 ft | 178 kts | 249° |
| 2026-04-25 23:32 | 38.74144 | -98.21389 | 11761 ft | 178 kts | 249° |
| 2026-04-25 23:33 | 38.73682 | -98.22860 | 11764 ft | 178 kts | 249° |
| 2026-04-25 23:33 | 38.73226 | -98.24317 | 11764 ft | 178 kts | 249° |
| 2026-04-25 23:33 | 38.72764 | -98.25789 | 11764 ft | 178 kts | 249° |
| 2026-04-25 23:33 | 38.72303 | -98.27261 | 11764 ft | 178 kts | 249° |
| 2026-04-25 23:34 | 38.71840 | -98.28733 | 11760 ft | 178 kts | 249° |
| 2026-04-25 23:34 | 38.71378 | -98.30203 | 11761 ft | 178 kts | 249° |
| 2026-04-25 23:34 | 38.70915 | -98.31678 | 11760 ft | 178 kts | 249° |
| 2026-04-25 23:34 | 38.70452 | -98.33149 | 11760 ft | 178 kts | 249° |
| 2026-04-25 23:35 | 38.69990 | -98.34618 | 11762 ft | 178 kts | 249° |
| 2026-04-25 23:35 | 38.69528 | -98.36087 | 11760 ft | 178 kts | 249° |
| 2026-04-25 23:35 | 38.69066 | -98.37557 | 11762 ft | 178 kts | 249° |
| 2026-04-25 23:35 | 38.68601 | -98.39027 | 11760 ft | 178 kts | 249° |
| 2026-04-25 23:36 | 38.68139 | -98.40496 | 11759 ft | 178 kts | 249° |
| 2026-04-25 23:36 | 38.67831 | -98.41469 | 11759 ft | 178 kts | 249° |
| 2026-04-25 23:36 | 38.67210 | -98.43438 | 11759 ft | 178 kts | 249° |
| 2026-04-25 23:36 | 38.66744 | -98.44913 | 11760 ft | 178 kts | 249° |
| 2026-04-25 23:37 | 38.66280 | -98.46382 | 11758 ft | 178 kts | 249° |
| 2026-04-25 23:37 | 38.65821 | -98.47834 | 11759 ft | 178 kts | 249° |
| 2026-04-25 23:37 | 38.65356 | -98.49303 | 11756 ft | 178 kts | 249° |
| 2026-04-25 23:37 | 38.64892 | -98.50773 | 11760 ft | 178 kts | 249° |
| 2026-04-25 23:38 | 38.64425 | -98.52245 | 11760 ft | 179 kts | 249° |
| 2026-04-25 23:38 | 38.63959 | -98.53716 | 11762 ft | 179 kts | 249° |
| 2026-04-25 23:38 | 38.63492 | -98.55193 | 11762 ft | 180 kts | 249° |
| 2026-04-25 23:38 | 38.63021 | -98.56675 | 11762 ft | 180 kts | 249° |
| 2026-04-25 23:39 | 38.62552 | -98.58152 | 11759 ft | 179 kts | 249° |
| 2026-04-25 23:39 | 38.62084 | -98.59628 | 11763 ft | 178 kts | 249° |
| 2026-04-25 23:39 | 38.61618 | -98.61096 | 11765 ft | 178 kts | 249° |
| 2026-04-25 23:39 | 38.61150 | -98.62567 | 11767 ft | 178 kts | 249° |
| 2026-04-25 23:40 | 38.60684 | -98.64033 | 11771 ft | 178 kts | 249° |
| 2026-04-25 23:40 | 38.60220 | -98.65493 | 11782 ft | 178 kts | 249° |
| 2026-04-25 23:40 | 38.59758 | -98.66940 | 11783 ft | 177 kts | 249° |
| 2026-04-25 23:40 | 38.59294 | -98.68400 | 11786 ft | 177 kts | 249° |
| 2026-04-25 23:41 | 38.58828 | -98.69862 | 11790 ft | 177 kts | 249° |
| 2026-04-25 23:41 | 38.58363 | -98.71319 | 11793 ft | 177 kts | 249° |
| 2026-04-25 23:41 | 38.57899 | -98.72777 | 11796 ft | 177 kts | 249° |
| 2026-04-25 23:41 | 38.57435 | -98.74231 | 11798 ft | 176 kts | 249° |
| 2026-04-25 23:42 | 38.56972 | -98.75679 | 11801 ft | 176 kts | 249° |
| 2026-04-25 23:42 | 38.56512 | -98.77125 | 11803 ft | 176 kts | 249° |
| 2026-04-25 23:42 | 38.56048 | -98.78573 | 11797 ft | 175 kts | 249° |
| 2026-04-25 23:42 | 38.55588 | -98.80016 | 11803 ft | 175 kts | 249° |
| 2026-04-25 23:43 | 38.55125 | -98.81457 | 11804 ft | 175 kts | 249° |
| 2026-04-25 23:43 | 38.54663 | -98.82899 | 11807 ft | 175 kts | 249° |
| 2026-04-25 23:43 | 38.54204 | -98.84332 | 11807 ft | 174 kts | 249° |
| 2026-04-25 23:43 | 38.53745 | -98.85765 | 11808 ft | 174 kts | 249° |
| 2026-04-25 23:44 | 38.53285 | -98.87199 | 11807 ft | 174 kts | 249° |
| 2026-04-25 23:44 | 38.52827 | -98.88629 | 11807 ft | 174 kts | 248° |
| 2026-04-25 23:44 | 38.52365 | -98.90054 | 11812 ft | 174 kts | 249° |
| 2026-04-25 23:44 | 38.51910 | -98.91485 | 11812 ft | 174 kts | 249° |
| 2026-04-25 23:45 | 38.51450 | -98.92920 | 11812 ft | 174 kts | 248° |
| 2026-04-25 23:45 | 38.50989 | -98.94352 | 11814 ft | 175 kts | 249° |
| 2026-04-25 23:45 | 38.50682 | -98.95309 | 11814 ft | 175 kts | 249° |
| 2026-04-25 23:45 | 38.50069 | -98.97214 | 11812 ft | 175 kts | 249° |
| 2026-04-25 23:46 | 38.49757 | -98.98183 | 11812 ft | 174 kts | 249° |
| 2026-04-25 23:46 | 38.49145 | -99.00080 | 11811 ft | 175 kts | 249° |
| 2026-04-25 23:46 | 38.48834 | -99.01049 | 11811 ft | 175 kts | 249° |
| 2026-04-25 23:46 | 38.48372 | -99.02482 | 11811 ft | 174 kts | 249° |
| 2026-04-25 23:47 | 38.47910 | -99.03915 | 11810 ft | 175 kts | 249° |
| 2026-04-25 23:47 | 38.47445 | -99.05355 | 11808 ft | 175 kts | 249° |
| 2026-04-25 23:47 | 38.46981 | -99.06792 | 11809 ft | 175 kts | 249° |
| 2026-04-25 23:47 | 38.46523 | -99.08212 | 11809 ft | 176 kts | 249° |
| 2026-04-25 23:48 | 38.46049 | -99.09676 | 11807 ft | 176 kts | 248° |
| 2026-04-25 23:48 | 38.45586 | -99.11107 | 11806 ft | 177 kts | 248° |
| 2026-04-25 23:48 | 38.45117 | -99.12558 | 11806 ft | 177 kts | 248° |
| 2026-04-25 23:48 | 38.44646 | -99.14014 | 11794 ft | 177 kts | 248° |
| 2026-04-25 23:49 | 38.44178 | -99.15460 | 11795 ft | 176 kts | 248° |
| 2026-04-25 23:49 | 38.43712 | -99.16899 | 11795 ft | 175 kts | 248° |
| 2026-04-25 23:49 | 38.43247 | -99.18333 | 11794 ft | 175 kts | 248° |
| 2026-04-25 23:49 | 38.42783 | -99.19763 | 11793 ft | 174 kts | 248° |
| 2026-04-25 23:50 | 38.42320 | -99.21189 | 11791 ft | 174 kts | 248° |
| 2026-04-25 23:50 | 38.41858 | -99.22612 | 11791 ft | 174 kts | 248° |
| 2026-04-25 23:50 | 38.41395 | -99.24038 | 11792 ft | 173 kts | 248° |
| 2026-04-25 23:50 | 38.40933 | -99.25462 | 11792 ft | 174 kts | 248° |
| 2026-04-25 23:51 | 38.40471 | -99.26883 | 11789 ft | 174 kts | 248° |
| 2026-04-25 23:51 | 38.40008 | -99.28306 | 11789 ft | 174 kts | 248° |
| 2026-04-25 23:51 | 38.39549 | -99.29713 | 11789 ft | 174 kts | 248° |
| 2026-04-25 23:51 | 38.39085 | -99.31140 | 11788 ft | 174 kts | 248° |
| 2026-04-25 23:52 | 38.38619 | -99.32571 | 11788 ft | 174 kts | 248° |
| 2026-04-25 23:52 | 38.38154 | -99.33996 | 11787 ft | 174 kts | 248° |
| 2026-04-25 23:52 | 38.37691 | -99.35418 | 11783 ft | 174 kts | 248° |
| 2026-04-25 23:52 | 38.37228 | -99.36838 | 11781 ft | 174 kts | 248° |
| 2026-04-25 23:53 | 38.36764 | -99.38257 | 11770 ft | 173 kts | 248° |
| 2026-04-25 23:53 | 38.36300 | -99.39679 | 11776 ft | 174 kts | 248° |
| 2026-04-25 23:53 | 38.35835 | -99.41102 | 11776 ft | 174 kts | 248° |
| 2026-04-25 23:53 | 38.35367 | -99.42535 | 11777 ft | 175 kts | 248° |
| 2026-04-25 23:54 | 38.34898 | -99.43967 | 11776 ft | 175 kts | 248° |
| 2026-04-25 23:54 | 38.34436 | -99.45380 | 11775 ft | 175 kts | 248° |
| 2026-04-25 23:54 | 38.33969 | -99.46808 | 11775 ft | 174 kts | 247° |
| 2026-04-25 23:54 | 38.33503 | -99.48226 | 11774 ft | 174 kts | 247° |
| 2026-04-25 23:55 | 38.33039 | -99.49644 | 11775 ft | 174 kts | 247° |
| 2026-04-25 23:55 | 38.32575 | -99.51062 | 11775 ft | 173 kts | 247° |
| 2026-04-25 23:55 | 38.32111 | -99.52474 | 11776 ft | 173 kts | 247° |
| 2026-04-25 23:55 | 38.31647 | -99.53887 | 11780 ft | 173 kts | 247° |
| 2026-04-25 23:56 | 38.31183 | -99.55300 | 11786 ft | 173 kts | 247° |
| 2026-04-25 23:56 | 38.30720 | -99.56711 | 11786 ft | 173 kts | 247° |
| 2026-04-25 23:56 | 38.30256 | -99.58122 | 11785 ft | 173 kts | 247° |
| 2026-04-25 23:56 | 38.29792 | -99.59531 | 11785 ft | 173 kts | 247° |
| 2026-04-25 23:57 | 38.29328 | -99.60943 | 11784 ft | 172 kts | 247° |
| 2026-04-25 23:57 | 38.28865 | -99.62350 | 11784 ft | 172 kts | 247° |
| 2026-04-25 23:57 | 38.28401 | -99.63757 | 11784 ft | 172 kts | 247° |
| 2026-04-25 23:57 | 38.27943 | -99.65148 | 11783 ft | 172 kts | 247° |
| 2026-04-25 23:58 | 38.27479 | -99.66555 | 11783 ft | 173 kts | 247° |
| 2026-04-25 23:58 | 38.27014 | -99.67965 | 11784 ft | 173 kts | 247° |
| 2026-04-25 23:58 | 38.26550 | -99.69373 | 11799 ft | 173 kts | 246° |
| 2026-04-25 23:58 | 38.26086 | -99.70781 | 11797 ft | 173 kts | 246° |
| 2026-04-25 23:59 | 38.25620 | -99.72188 | 11801 ft | 172 kts | 246° |
| 2026-04-25 23:59 | 38.25156 | -99.73594 | 11791 ft | 172 kts | 247° |
| 2026-04-25 23:59 | 38.24690 | -99.75001 | 11788 ft | 172 kts | 247° |
| 2026-04-25 23:59 | 38.24226 | -99.76404 | 11790 ft | 171 kts | 247° |
| 2026-04-26 00:00 | 38.23764 | -99.77800 | 11793 ft | 171 kts | 246° |
| 2026-04-26 00:00 | 38.23299 | -99.79187 | 11791 ft | 171 kts | 247° |
| 2026-04-26 00:00 | 38.22842 | -99.80582 | 11792 ft | 170 kts | 247° |
| 2026-04-26 00:00 | 38.22382 | -99.81973 | 11793 ft | 171 kts | 247° |
| 2026-04-26 00:01 | 38.21921 | -99.83364 | 11800 ft | 171 kts | 247° |
| 2026-04-26 00:01 | 38.21464 | -99.84740 | 11802 ft | 172 kts | 248° |
| 2026-04-26 00:01 | 38.20999 | -99.86141 | 11802 ft | 172 kts | 248° |
| 2026-04-26 00:01 | 38.20535 | -99.87539 | 11800 ft | 171 kts | 248° |
| 2026-04-26 00:02 | 38.20072 | -99.88935 | 11800 ft | 171 kts | 248° |
| 2026-04-26 00:02 | 38.19608 | -99.90325 | 11806 ft | 171 kts | 248° |
| 2026-04-26 00:02 | 38.19149 | -99.91710 | 11807 ft | 170 kts | 249° |
| 2026-04-26 00:02 | 38.18688 | -99.93095 | 11801 ft | 171 kts | 248° |
| 2026-04-26 00:03 | 38.18223 | -99.94488 | 11802 ft | 171 kts | 248° |
| 2026-04-26 00:03 | 38.17761 | -99.95880 | 11801 ft | 172 kts | 248° |
| 2026-04-26 00:03 | 38.17294 | -99.97280 | 11797 ft | 172 kts | 248° |
| 2026-04-26 00:03 | 38.16827 | -99.98679 | 11815 ft | 172 kts | 248° |
| 2026-04-26 00:04 | 38.16362 | -100.00076 | 11813 ft | 172 kts | 248° |
| 2026-04-26 00:04 | 38.15898 | -100.01467 | 11814 ft | 170 kts | 249° |
| 2026-04-26 00:04 | 38.15435 | -100.02855 | 11812 ft | 171 kts | 248° |
| 2026-04-26 00:04 | 38.14972 | -100.04239 | 11812 ft | 171 kts | 248° |
| 2026-04-26 00:05 | 38.14509 | -100.05626 | 11816 ft | 170 kts | 248° |
| 2026-04-26 00:05 | 38.14044 | -100.07014 | 11812 ft | 171 kts | 248° |
| 2026-04-26 00:05 | 38.13579 | -100.08409 | 11812 ft | 172 kts | 248° |
| 2026-04-26 00:05 | 38.13111 | -100.09803 | 11818 ft | 171 kts | 248° |
| 2026-04-26 00:06 | 38.12646 | -100.11196 | 11808 ft | 171 kts | 248° |
| 2026-04-26 00:06 | 38.12180 | -100.12586 | 11812 ft | 170 kts | 248° |
| 2026-04-26 00:06 | 38.11718 | -100.13963 | 11819 ft | 169 kts | 248° |
| 2026-04-26 00:06 | 38.11261 | -100.15325 | 11818 ft | 170 kts | 248° |
| 2026-04-26 00:07 | 38.10791 | -100.16724 | 11819 ft | 170 kts | 248° |
| 2026-04-26 00:07 | 38.10334 | -100.18089 | 11819 ft | 170 kts | 248° |
| 2026-04-26 00:07 | 38.09868 | -100.19476 | 11814 ft | 171 kts | 248° |
| 2026-04-26 00:07 | 38.09402 | -100.20865 | 11817 ft | 171 kts | 250° |
| 2026-04-26 00:08 | 38.08937 | -100.22247 | 11818 ft | 170 kts | 250° |
| 2026-04-26 00:08 | 38.08473 | -100.23629 | 11819 ft | 170 kts | 250° |
| 2026-04-26 00:08 | 38.08009 | -100.25005 | 11816 ft | 170 kts | 250° |
| 2026-04-26 00:08 | 38.07545 | -100.26382 | 11816 ft | 169 kts | 250° |
| 2026-04-26 00:09 | 38.07084 | -100.27756 | 11813 ft | 169 kts | 250° |
| 2026-04-26 00:09 | 38.06622 | -100.29126 | 11822 ft | 169 kts | 250° |
| 2026-04-26 00:09 | 38.06159 | -100.30500 | 11822 ft | 169 kts | 250° |
| 2026-04-26 00:09 | 38.05697 | -100.31871 | 11821 ft | 169 kts | 250° |
| 2026-04-26 00:10 | 38.05235 | -100.33242 | 11822 ft | 168 kts | 250° |
| 2026-04-26 00:10 | 38.04779 | -100.34590 | 11819 ft | 168 kts | 250° |
| 2026-04-26 00:10 | 38.04312 | -100.35975 | 11821 ft | 169 kts | 250° |
| 2026-04-26 00:10 | 38.03849 | -100.37343 | 11818 ft | 169 kts | 250° |
| 2026-04-26 00:11 | 38.03393 | -100.38692 | 11824 ft | 168 kts | 250° |
| 2026-04-26 00:11 | 38.02932 | -100.40057 | 11824 ft | 169 kts | 250° |
| 2026-04-26 00:11 | 38.02468 | -100.41426 | 11824 ft | 169 kts | 250° |
| 2026-04-26 00:11 | 38.02006 | -100.42794 | 11819 ft | 169 kts | 250° |
| 2026-04-26 00:12 | 38.01543 | -100.44162 | 11821 ft | 169 kts | 250° |
| 2026-04-26 00:12 | 38.01079 | -100.45532 | 11824 ft | 169 kts | 250° |
| 2026-04-26 00:12 | 38.00614 | -100.46902 | 11823 ft | 169 kts | 250° |
| 2026-04-26 00:12 | 38.00148 | -100.48276 | 11808 ft | 169 kts | 250° |
| 2026-04-26 00:13 | 37.99683 | -100.49647 | 11812 ft | 169 kts | 250° |
| 2026-04-26 00:13 | 37.99219 | -100.51014 | 11814 ft | 169 kts | 250° |
| 2026-04-26 00:13 | 37.98754 | -100.52384 | 11815 ft | 169 kts | 250° |
| 2026-04-26 00:13 | 37.98289 | -100.53752 | 11812 ft | 169 kts | 250° |
| 2026-04-26 00:14 | 37.97823 | -100.55123 | 11812 ft | 169 kts | 250° |
| 2026-04-26 00:14 | 37.97359 | -100.56490 | 11813 ft | 169 kts | 250° |
| 2026-04-26 00:14 | 37.96900 | -100.57838 | 11817 ft | 168 kts | 250° |
| 2026-04-26 00:14 | 37.96440 | -100.59191 | 11860 ft | 166 kts | 250° |
| 2026-04-26 00:15 | 37.95983 | -100.60531 | 11860 ft | 165 kts | 250° |
| 2026-04-26 00:15 | 37.95528 | -100.61867 | 11857 ft | 165 kts | 250° |
| 2026-04-26 00:15 | 37.95075 | -100.63195 | 11861 ft | 164 kts | 250° |
| 2026-04-26 00:15 | 37.94622 | -100.64524 | 11861 ft | 164 kts | 250° |
| 2026-04-26 00:16 | 37.94170 | -100.65851 | 11854 ft | 164 kts | 250° |
| 2026-04-26 00:16 | 37.93716 | -100.67179 | 11859 ft | 164 kts | 250° |
| 2026-04-26 00:16 | 37.93264 | -100.68504 | 11855 ft | 164 kts | 250° |
| 2026-04-26 00:16 | 37.92812 | -100.69828 | 11857 ft | 163 kts | 250° |
| 2026-04-26 00:17 | 37.92360 | -100.71149 | 11854 ft | 163 kts | 250° |
| 2026-04-26 00:17 | 37.91910 | -100.72467 | 11856 ft | 163 kts | 250° |
| 2026-04-26 00:17 | 37.91260 | -100.73654 | 11856 ft | 172 kts | 226° |
| 2026-04-26 00:17 | 37.90279 | -100.74540 | 11859 ft | 173 kts | 223° |
| 2026-04-26 00:18 | 37.89288 | -100.75415 | 11863 ft | 174 kts | 223° |
| 2026-04-26 00:18 | 37.88295 | -100.76292 | 11862 ft | 174 kts | 223° |
| 2026-04-26 00:18 | 37.87301 | -100.77167 | 11860 ft | 174 kts | 223° |
| 2026-04-26 00:18 | 37.86307 | -100.78045 | 11861 ft | 174 kts | 223° |
| 2026-04-26 00:19 | 37.85313 | -100.78921 | 11863 ft | 174 kts | 223° |
| 2026-04-26 00:19 | 37.84317 | -100.79798 | 11860 ft | 174 kts | 223° |
| 2026-04-26 00:19 | 37.83322 | -100.80675 | 11858 ft | 174 kts | 223° |
| 2026-04-26 00:19 | 37.82325 | -100.81552 | 11850 ft | 174 kts | 223° |
| 2026-04-26 00:20 | 37.81330 | -100.82427 | 11854 ft | 174 kts | 223° |
| 2026-04-26 00:20 | 37.80347 | -100.83291 | 11852 ft | 174 kts | 223° |
| 2026-04-26 00:20 | 37.79349 | -100.84168 | 11846 ft | 174 kts | 223° |
| 2026-04-26 00:20 | 37.78351 | -100.85045 | 11846 ft | 174 kts | 223° |
| 2026-04-26 00:21 | 37.77357 | -100.85918 | 11843 ft | 174 kts | 223° |
| 2026-04-26 00:21 | 37.76360 | -100.86794 | 11841 ft | 174 kts | 223° |
| 2026-04-26 00:21 | 37.75365 | -100.87668 | 11834 ft | 174 kts | 223° |
| 2026-04-26 00:21 | 37.74368 | -100.88542 | 11831 ft | 174 kts | 223° |
| 2026-04-26 00:22 | 37.73369 | -100.89419 | 11832 ft | 175 kts | 223° |
| 2026-04-26 00:22 | 37.72370 | -100.90295 | 11827 ft | 175 kts | 223° |
| 2026-04-26 00:22 | 37.71370 | -100.91172 | 11822 ft | 175 kts | 223° |
| 2026-04-26 00:22 | 37.70374 | -100.92045 | 11824 ft | 174 kts | 223° |
| 2026-04-26 00:23 | 37.69377 | -100.92919 | 11820 ft | 174 kts | 223° |
| 2026-04-26 00:23 | 37.68381 | -100.93790 | 11820 ft | 174 kts | 223° |
| 2026-04-26 00:23 | 37.67385 | -100.94663 | 11806 ft | 174 kts | 222° |
| 2026-04-26 00:23 | 37.66401 | -100.95526 | 11805 ft | 174 kts | 222° |
| 2026-04-26 00:24 | 37.65405 | -100.96396 | 11803 ft | 174 kts | 223° |
| 2026-04-26 00:24 | 37.64412 | -100.97265 | 11802 ft | 174 kts | 222° |
| 2026-04-26 00:24 | 37.63419 | -100.98134 | 11799 ft | 174 kts | 222° |
| 2026-04-26 00:24 | 37.62425 | -100.99003 | 11792 ft | 174 kts | 223° |
| 2026-04-26 00:25 | 37.61428 | -100.99874 | 11800 ft | 174 kts | 222° |
| 2026-04-26 00:25 | 37.60434 | -101.00743 | 11792 ft | 174 kts | 222° |
| 2026-04-26 00:25 | 37.59439 | -101.01611 | 11793 ft | 174 kts | 222° |
| 2026-04-26 00:25 | 37.58442 | -101.02482 | 11793 ft | 174 kts | 222° |
| 2026-04-26 00:26 | 37.57446 | -101.03351 | 11791 ft | 174 kts | 222° |
| 2026-04-26 00:26 | 37.56453 | -101.04219 | 11793 ft | 174 kts | 222° |
| 2026-04-26 00:26 | 37.55456 | -101.05088 | 11788 ft | 174 kts | 222° |
| 2026-04-26 00:26 | 37.54462 | -101.05955 | 11785 ft | 174 kts | 222° |
| 2026-04-26 00:27 | 37.53466 | -101.06823 | 11794 ft | 174 kts | 222° |
| 2026-04-26 00:27 | 37.52469 | -101.07693 | 11794 ft | 174 kts | 222° |
| 2026-04-26 00:27 | 37.51474 | -101.08559 | 11795 ft | 174 kts | 222° |
| 2026-04-26 00:27 | 37.50481 | -101.09424 | 11797 ft | 174 kts | 222° |
| 2026-04-26 00:28 | 37.49486 | -101.10290 | 11792 ft | 174 kts | 222° |
| 2026-04-26 00:28 | 37.48489 | -101.11159 | 11788 ft | 174 kts | 222° |
| 2026-04-26 00:28 | 37.47505 | -101.12015 | 11789 ft | 174 kts | 222° |
| 2026-04-26 00:28 | 37.46506 | -101.12885 | 11793 ft | 175 kts | 222° |
| 2026-04-26 00:29 | 37.45503 | -101.13758 | 11793 ft | 175 kts | 222° |
| 2026-04-26 00:29 | 37.44499 | -101.14631 | 11796 ft | 175 kts | 222° |
| 2026-04-26 00:29 | 37.43498 | -101.15500 | 11795 ft | 175 kts | 222° |
| 2026-04-26 00:29 | 37.42494 | -101.16373 | 11794 ft | 175 kts | 222° |
| 2026-04-26 00:30 | 37.41495 | -101.17239 | 11795 ft | 174 kts | 221° |
| 2026-04-26 00:30 | 37.40499 | -101.18104 | 11795 ft | 174 kts | 221° |
| 2026-04-26 00:30 | 37.39501 | -101.18971 | 11795 ft | 174 kts | 221° |
| 2026-04-26 00:30 | 37.38502 | -101.19838 | 11793 ft | 174 kts | 221° |
| 2026-04-26 00:31 | 37.37507 | -101.20701 | 11793 ft | 174 kts | 221° |
| 2026-04-26 00:31 | 37.36508 | -101.21567 | 11794 ft | 174 kts | 221° |
| 2026-04-26 00:31 | 37.35511 | -101.22433 | 11794 ft | 174 kts | 221° |
| 2026-04-26 00:31 | 37.34527 | -101.23285 | 11793 ft | 174 kts | 221° |
| 2026-04-26 00:32 | 37.33530 | -101.24149 | 11794 ft | 174 kts | 221° |
| 2026-04-26 00:32 | 37.32534 | -101.25012 | 11811 ft | 174 kts | 221° |
| 2026-04-26 00:32 | 37.30542 | -101.26737 | 11806 ft | 174 kts | 221° |
| 2026-04-26 00:33 | 37.29545 | -101.27600 | 11801 ft | 174 kts | 221° |
| 2026-04-26 00:33 | 37.28550 | -101.28461 | 11799 ft | 173 kts | 221° |
| 2026-04-26 00:33 | 37.27557 | -101.29319 | 11798 ft | 173 kts | 221° |
| 2026-04-26 00:33 | 37.26562 | -101.30181 | 11800 ft | 174 kts | 221° |
| 2026-04-26 00:34 | 37.25890 | -101.30763 | 11849 ft | 173 kts | 221° |
| 2026-04-26 00:34 | 37.25028 | -101.31758 | 11845 ft | 169 kts | 231° |
| 2026-04-26 00:34 | 37.24218 | -101.32835 | 11847 ft | 170 kts | 231° |
| 2026-04-26 00:34 | 37.23410 | -101.33914 | 11847 ft | 170 kts | 231° |
| 2026-04-26 00:35 | 37.22604 | -101.34994 | 11847 ft | 169 kts | 232° |
| 2026-04-26 00:35 | 37.21804 | -101.36073 | 11847 ft | 169 kts | 232° |
| 2026-04-26 00:35 | 37.21003 | -101.37154 | 11843 ft | 169 kts | 231° |
| 2026-04-26 00:35 | 37.20202 | -101.38241 | 11847 ft | 170 kts | 232° |
| 2026-04-26 00:36 | 37.19402 | -101.39330 | 11840 ft | 170 kts | 232° |
| 2026-04-26 00:36 | 37.18604 | -101.40421 | 11849 ft | 170 kts | 232° |
| 2026-04-26 00:36 | 37.17808 | -101.41512 | 11848 ft | 169 kts | 232° |
| 2026-04-26 00:36 | 37.17017 | -101.42602 | 11841 ft | 169 kts | 232° |
| 2026-04-26 00:37 | 37.16227 | -101.43694 | 11848 ft | 169 kts | 232° |
| 2026-04-26 00:37 | 37.15439 | -101.44789 | 11846 ft | 169 kts | 231° |
| 2026-04-26 00:37 | 37.14652 | -101.45884 | 11845 ft | 169 kts | 231° |
| 2026-04-26 00:37 | 37.13868 | -101.46979 | 11844 ft | 169 kts | 231° |
| 2026-04-26 00:38 | 37.13089 | -101.48074 | 11843 ft | 169 kts | 231° |
| 2026-04-26 00:38 | 37.12309 | -101.49171 | 11841 ft | 169 kts | 231° |
| 2026-04-26 00:38 | 37.11530 | -101.50272 | 11839 ft | 169 kts | 231° |
| 2026-04-26 00:38 | 37.10762 | -101.51362 | 11836 ft | 169 kts | 232° |
| 2026-04-26 00:39 | 37.09986 | -101.52467 | 11834 ft | 169 kts | 232° |
| 2026-04-26 00:39 | 37.09213 | -101.53573 | 11833 ft | 169 kts | 232° |
| 2026-04-26 00:39 | 37.08437 | -101.54688 | 11830 ft | 169 kts | 232° |
| 2026-04-26 00:39 | 37.07665 | -101.55801 | 11826 ft | 169 kts | 232° |
| 2026-04-26 00:40 | 37.06893 | -101.56917 | 11823 ft | 169 kts | 232° |
| 2026-04-26 00:40 | 37.06126 | -101.58033 | 11821 ft | 169 kts | 232° |
| 2026-04-26 00:40 | 37.05360 | -101.59150 | 11818 ft | 169 kts | 232° |
| 2026-04-26 00:40 | 37.04595 | -101.60269 | 11811 ft | 169 kts | 232° |
| 2026-04-26 00:41 | 37.03833 | -101.61391 | 11825 ft | 169 kts | 232° |
| 2026-04-26 00:41 | 37.03073 | -101.62512 | 11829 ft | 169 kts | 232° |
| 2026-04-26 00:41 | 37.02313 | -101.63638 | 11833 ft | 169 kts | 232° |
| 2026-04-26 00:41 | 37.01557 | -101.64763 | 11836 ft | 169 kts | 232° |
| 2026-04-26 00:42 | 37.00812 | -101.65876 | 11840 ft | 169 kts | 233° |
| 2026-04-26 00:42 | 37.00058 | -101.67008 | 11844 ft | 169 kts | 233° |
| 2026-04-26 00:42 | 36.99308 | -101.68141 | 11848 ft | 169 kts | 232° |
| 2026-04-26 00:42 | 36.98558 | -101.69276 | 11851 ft | 169 kts | 232° |
| 2026-04-26 00:43 | 36.97808 | -101.70415 | 11852 ft | 169 kts | 232° |
| 2026-04-26 00:43 | 36.97062 | -101.71553 | 11854 ft | 169 kts | 232° |
| 2026-04-26 00:43 | 36.96317 | -101.72694 | 11857 ft | 169 kts | 233° |
| 2026-04-26 00:43 | 36.95573 | -101.73839 | 11860 ft | 169 kts | 233° |
| 2026-04-26 00:44 | 36.94831 | -101.74984 | 11863 ft | 170 kts | 233° |
| 2026-04-26 00:44 | 36.94090 | -101.76134 | 11865 ft | 170 kts | 233° |
| 2026-04-26 00:44 | 36.93351 | -101.77284 | 11866 ft | 170 kts | 233° |
| 2026-04-26 00:44 | 36.92614 | -101.78437 | 11867 ft | 170 kts | 233° |
| 2026-04-26 00:45 | 36.91878 | -101.79593 | 11868 ft | 170 kts | 233° |
| 2026-04-26 00:45 | 36.91144 | -101.80752 | 11867 ft | 170 kts | 233° |
| 2026-04-26 00:45 | 36.90412 | -101.81910 | 11867 ft | 170 kts | 233° |
| 2026-04-26 00:45 | 36.89683 | -101.83073 | 11866 ft | 170 kts | 233° |
| 2026-04-26 00:46 | 36.88956 | -101.84234 | 11862 ft | 170 kts | 234° |
| 2026-04-26 00:46 | 36.88231 | -101.85397 | 11860 ft | 170 kts | 234° |
| 2026-04-26 00:46 | 36.87513 | -101.86557 | 11859 ft | 168 kts | 233° |
| 2026-04-26 00:46 | 36.86802 | -101.87709 | 11856 ft | 167 kts | 234° |
| 2026-04-26 00:47 | 36.86102 | -101.88848 | 11854 ft | 167 kts | 234° |
| 2026-04-26 00:47 | 36.85397 | -101.89999 | 11848 ft | 167 kts | 234° |
| 2026-04-26 00:47 | 36.84696 | -101.91149 | 11844 ft | 166 kts | 234° |
| 2026-04-26 00:47 | 36.83998 | -101.92300 | 11840 ft | 166 kts | 234° |
| 2026-04-26 00:48 | 36.83303 | -101.93451 | 11836 ft | 166 kts | 234° |
| 2026-04-26 00:48 | 36.82610 | -101.94604 | 11831 ft | 166 kts | 234° |
| 2026-04-26 00:48 | 36.81918 | -101.95761 | 11826 ft | 166 kts | 234° |
| 2026-04-26 00:48 | 36.81230 | -101.96916 | 11823 ft | 166 kts | 234° |
| 2026-04-26 00:49 | 36.80543 | -101.98073 | 11818 ft | 166 kts | 234° |
| 2026-04-26 00:49 | 36.79860 | -101.99232 | 11813 ft | 166 kts | 234° |
| 2026-04-26 00:49 | 36.79176 | -102.00395 | 11809 ft | 166 kts | 235° |
| 2026-04-26 00:49 | 36.78493 | -102.01562 | 11805 ft | 167 kts | 235° |
| 2026-04-26 00:50 | 36.77813 | -102.02730 | 11799 ft | 166 kts | 235° |
| 2026-04-26 00:50 | 36.77145 | -102.03883 | 11792 ft | 152 kts | 236° |
| 2026-04-26 00:50 | 36.76599 | -102.04835 | 11783 ft | 119 kts | 235° |
| 2026-04-26 00:50 | 36.76179 | -102.05577 | 11770 ft | 90 kts | 236° |
| 2026-04-26 00:51 | 36.75865 | -102.06144 | 11686 ft | 72 kts | 236° |
| 2026-04-26 00:51 | 36.75590 | -102.06646 | 11457 ft | 70 kts | 236° |
| 2026-04-26 00:51 | 36.75337 | -102.07117 | 11295 ft | 61 kts | 236° |
| 2026-04-26 00:51 | 36.75137 | -102.07548 | 10953 ft | 42 kts | 255° |
| 2026-04-26 00:52 | 36.74983 | -102.07763 | 6379 ft | 148 kts | 158° |
| 2026-04-26 00:52 | 36.74123 | -102.07376 | 6328 ft | 119 kts | 154° |
| 2026-04-26 00:52 | 36.73382 | -102.07062 | 6144 ft | 108 kts | 152° |
| 2026-04-26 00:52 | 36.72689 | -102.06785 | 5908 ft | 102 kts | 153° |
| 2026-04-26 00:53 | 36.72016 | -102.06534 | 5632 ft | 100 kts | 153° |
| 2026-04-26 00:53 | 36.71354 | -102.06298 | 5391 ft | 98 kts | 153° |
| 2026-04-26 00:53 | 36.70701 | -102.06074 | 5156 ft | 97 kts | 154° |
| 2026-04-26 00:53 | 36.70045 | -102.05863 | 4883 ft | 97 kts | 156° |
| 2026-04-26 00:54 | 36.69388 | -102.05651 | 4609 ft | 98 kts | 155° |
| 2026-04-26 00:54 | 36.68741 | -102.05423 | 4344 ft | 95 kts | 146° |
| 2026-04-26 00:54 | 36.68122 | -102.05126 | 4108 ft | 96 kts | 151° |
| 2026-04-26 00:54 | 36.67512 | -102.04842 | 3935 ft | 93 kts | 145° |
| 2026-04-26 00:55 | 36.66900 | -102.04573 | 3713 ft | 94 kts | 149° |
| 2026-04-26 00:55 | 36.66100 | -102.04237 | 4217 ft | 127 kts | 155° |
| 2026-04-26 00:55 | 36.65296 | -102.04011 | 4133 ft | 111 kts | 159° |
| 2026-04-26 00:55 | 36.64560 | -102.03859 | 3880 ft | 106 kts | 163° |
| 2026-04-26 00:56 | 36.63831 | -102.03761 | 3659 ft | 105 kts | 165° |
| 2026-04-26 00:56 | 36.63281 | -102.03695 | 3644 ft | 32 kts | 173° |
| 2026-04-26 00:56 | 36.63254 | -102.03691 | 3646 ft | 0 kts | 172° |